sensor_id;sensor_type;location;lat;lon;timestamp;P1;durP1;ratioP1;P2;durP2;ratioP2
12840;SDS011;6487;48.626;12.486;2023-12-28T00:00:02;6.90;;;5.40;;
12840;SDS011;6487;48.626;12.486;2023-12-28T00:02:33;7.43;;;5.90;;
12840;SDS011;6487;48.626;12.486;2023-12-28T00:05:02;10.27;;;5.70;;
12840;SDS011;6487;48.626;12.486;2023-12-28T00:07:31;6.83;;;5.00;;
12840;SDS011;6487;48.626;12.486;2023-12-28T00:09:59;5.80;;;4.60;;
12840;SDS011;6487;48.626;12.486;2023-12-28T00:12:33;6.50;;;4.73;;
12840;SDS011;6487;48.626;12.486;2023-12-28T00:15:02;5.57;;;4.93;;
12840;SDS011;6487;48.626;12.486;2023-12-28T00:17:31;7.57;;;4.93;;
12840;SDS011;6487;48.626;12.486;2023-12-28T00:20:00;5.80;;;5.20;;
12840;SDS011;6487;48.626;12.486;2023-12-28T00:22:28;8.63;;;5.97;;
12840;SDS011;6487;48.626;12.486;2023-12-28T00:24:57;12.87;;;6.50;;
12840;SDS011;6487;48.626;12.486;2023-12-28T00:27:26;7.90;;;5.60;;
12840;SDS011;6487;48.626;12.486;2023-12-28T00:29:58;5.77;;;5.17;;
12840;SDS011;6487;48.626;12.486;2023-12-28T00:32:26;7.43;;;5.13;;
12840;SDS011;6487;48.626;12.486;2023-12-28T00:34:55;6.40;;;4.47;;
12840;SDS011;6487;48.626;12.486;2023-12-28T00:37:24;5.80;;;4.67;;
12840;SDS011;6487;48.626;12.486;2023-12-28T00:39:52;5.00;;;4.50;;
12840;SDS011;6487;48.626;12.486;2023-12-28T00:42:21;4.90;;;4.40;;
12840;SDS011;6487;48.626;12.486;2023-12-28T00:44:49;6.23;;;4.83;;
12840;SDS011;6487;48.626;12.486;2023-12-28T00:47:20;6.07;;;4.73;;
12840;SDS011;6487;48.626;12.486;2023-12-28T00:49:48;6.50;;;4.50;;
12840;SDS011;6487;48.626;12.486;2023-12-28T00:52:17;7.43;;;4.70;;
12840;SDS011;6487;48.626;12.486;2023-12-28T00:54:45;5.27;;;4.57;;
12840;SDS011;6487;48.626;12.486;2023-12-28T00:57:14;6.03;;;4.93;;
12840;SDS011;6487;48.626;12.486;2023-12-28T00:59:42;6.00;;;4.57;;
12840;SDS011;6487;48.626;12.486;2023-12-28T01:02:11;6.03;;;4.93;;
12840;SDS011;6487;48.626;12.486;2023-12-28T01:04:41;5.90;;;4.87;;
12840;SDS011;6487;48.626;12.486;2023-12-28T01:07:10;5.27;;;4.77;;
12840;SDS011;6487;48.626;12.486;2023-12-28T01:09:39;6.40;;;4.50;;
12840;SDS011;6487;48.626;12.486;2023-12-28T01:12:08;6.70;;;4.23;;
12840;SDS011;6487;48.626;12.486;2023-12-28T01:14:36;5.40;;;3.73;;
12840;SDS011;6487;48.626;12.486;2023-12-28T01:17:05;5.87;;;5.20;;
12840;SDS011;6487;48.626;12.486;2023-12-28T01:19:34;4.70;;;4.20;;
12840;SDS011;6487;48.626;12.486;2023-12-28T01:22:07;5.00;;;4.40;;
12840;SDS011;6487;48.626;12.486;2023-12-28T01:24:35;5.70;;;5.10;;
12840;SDS011;6487;48.626;12.486;2023-12-28T01:27:04;6.93;;;4.30;;
12840;SDS011;6487;48.626;12.486;2023-12-28T01:29:32;5.83;;;4.47;;
12840;SDS011;6487;48.626;12.486;2023-12-28T01:32:03;8.17;;;6.50;;
12840;SDS011;6487;48.626;12.486;2023-12-28T01:34:33;6.80;;;5.63;;
12840;SDS011;6487;48.626;12.486;2023-12-28T01:37:02;5.50;;;4.90;;
12840;SDS011;6487;48.626;12.486;2023-12-28T01:39:32;6.20;;;5.00;;
12840;SDS011;6487;48.626;12.486;2023-12-28T01:41:59;6.47;;;4.77;;
12840;SDS011;6487;48.626;12.486;2023-12-28T01:44:28;5.97;;;4.80;;
12840;SDS011;6487;48.626;12.486;2023-12-28T01:46:56;8.27;;;5.53;;
12840;SDS011;6487;48.626;12.486;2023-12-28T01:49:25;6.70;;;5.37;;
12840;SDS011;6487;48.626;12.486;2023-12-28T01:51:54;6.67;;;5.17;;
12840;SDS011;6487;48.626;12.486;2023-12-28T01:54:23;5.30;;;4.70;;
12840;SDS011;6487;48.626;12.486;2023-12-28T01:56:53;6.03;;;4.80;;
12840;SDS011;6487;48.626;12.486;2023-12-28T01:59:22;6.83;;;5.10;;
12840;SDS011;6487;48.626;12.486;2023-12-28T02:01:51;5.93;;;4.87;;
12840;SDS011;6487;48.626;12.486;2023-12-28T02:04:19;10.47;;;5.20;;
12840;SDS011;6487;48.626;12.486;2023-12-28T02:06:54;6.93;;;4.80;;
12840;SDS011;6487;48.626;12.486;2023-12-28T02:09:26;7.53;;;4.73;;
12840;SDS011;6487;48.626;12.486;2023-12-28T02:11:56;5.60;;;4.80;;
12840;SDS011;6487;48.626;12.486;2023-12-28T02:14:24;6.40;;;5.13;;
12840;SDS011;6487;48.626;12.486;2023-12-28T02:16:56;6.07;;;4.60;;
12840;SDS011;6487;48.626;12.486;2023-12-28T02:19:32;5.10;;;4.43;;
12840;SDS011;6487;48.626;12.486;2023-12-28T02:22:07;5.00;;;4.50;;
12840;SDS011;6487;48.626;12.486;2023-12-28T02:27:32;4.83;;;4.00;;
12840;SDS011;6487;48.626;12.486;2023-12-28T02:30:04;5.30;;;3.70;;
12840;SDS011;6487;48.626;12.486;2023-12-28T02:32:43;6.60;;;4.80;;
12840;SDS011;6487;48.626;12.486;2023-12-28T02:35:22;4.83;;;3.87;;
12840;SDS011;6487;48.626;12.486;2023-12-28T02:37:54;5.57;;;4.63;;
12840;SDS011;6487;48.626;12.486;2023-12-28T02:40:28;4.83;;;4.23;;
12840;SDS011;6487;48.626;12.486;2023-12-28T02:43:03;4.67;;;4.27;;
12840;SDS011;6487;48.626;12.486;2023-12-28T02:45:32;5.70;;;4.63;;
12840;SDS011;6487;48.626;12.486;2023-12-28T02:48:01;5.00;;;4.50;;
12840;SDS011;6487;48.626;12.486;2023-12-28T02:50:31;5.93;;;4.37;;
12840;SDS011;6487;48.626;12.486;2023-12-28T02:53:00;5.10;;;4.60;;
12840;SDS011;6487;48.626;12.486;2023-12-28T02:55:30;5.57;;;4.57;;
12840;SDS011;6487;48.626;12.486;2023-12-28T02:57:59;5.90;;;4.50;;
12840;SDS011;6487;48.626;12.486;2023-12-28T03:00:28;4.97;;;4.47;;
12840;SDS011;6487;48.626;12.486;2023-12-28T03:02:57;6.50;;;4.50;;
12840;SDS011;6487;48.626;12.486;2023-12-28T03:05:25;6.33;;;4.57;;
12840;SDS011;6487;48.626;12.486;2023-12-28T03:07:54;5.00;;;4.17;;
12840;SDS011;6487;48.626;12.486;2023-12-28T03:10:25;7.57;;;5.03;;
12840;SDS011;6487;48.626;12.486;2023-12-28T03:12:55;4.83;;;3.87;;
12840;SDS011;6487;48.626;12.486;2023-12-28T03:15:24;6.53;;;4.50;;
12840;SDS011;6487;48.626;12.486;2023-12-28T03:17:53;6.60;;;4.97;;
12840;SDS011;6487;48.626;12.486;2023-12-28T03:20:22;5.60;;;4.30;;
12840;SDS011;6487;48.626;12.486;2023-12-28T03:22:51;7.53;;;5.23;;
12840;SDS011;6487;48.626;12.486;2023-12-28T03:25:19;6.10;;;4.90;;
12840;SDS011;6487;48.626;12.486;2023-12-28T03:27:47;5.60;;;4.80;;
12840;SDS011;6487;48.626;12.486;2023-12-28T03:30:18;7.57;;;4.90;;
12840;SDS011;6487;48.626;12.486;2023-12-28T03:32:46;5.57;;;5.07;;
12840;SDS011;6487;48.626;12.486;2023-12-28T03:35:15;6.00;;;4.90;;
12840;SDS011;6487;48.626;12.486;2023-12-28T03:37:44;5.87;;;4.77;;
12840;SDS011;6487;48.626;12.486;2023-12-28T03:40:13;6.07;;;4.90;;
12840;SDS011;6487;48.626;12.486;2023-12-28T03:42:45;6.03;;;4.77;;
12840;SDS011;6487;48.626;12.486;2023-12-28T03:45:14;6.70;;;5.57;;
12840;SDS011;6487;48.626;12.486;2023-12-28T03:47:44;5.90;;;4.30;;
12840;SDS011;6487;48.626;12.486;2023-12-28T03:50:13;4.70;;;4.20;;
12840;SDS011;6487;48.626;12.486;2023-12-28T03:52:42;5.73;;;4.33;;
12840;SDS011;6487;48.626;12.486;2023-12-28T03:55:10;5.03;;;4.30;;
12840;SDS011;6487;48.626;12.486;2023-12-28T03:57:39;5.73;;;4.27;;
12840;SDS011;6487;48.626;12.486;2023-12-28T04:00:09;5.00;;;4.37;;
12840;SDS011;6487;48.626;12.486;2023-12-28T04:02:38;7.87;;;4.73;;
12840;SDS011;6487;48.626;12.486;2023-12-28T04:05:09;4.73;;;4.10;;
12840;SDS011;6487;48.626;12.486;2023-12-28T04:07:37;5.67;;;4.37;;
12840;SDS011;6487;48.626;12.486;2023-12-28T04:10:06;4.87;;;4.13;;
12840;SDS011;6487;48.626;12.486;2023-12-28T04:12:35;5.87;;;3.90;;
12840;SDS011;6487;48.626;12.486;2023-12-28T04:15:04;7.83;;;4.70;;
12840;SDS011;6487;48.626;12.486;2023-12-28T04:17:33;7.47;;;4.57;;
12840;SDS011;6487;48.626;12.486;2023-12-28T04:20:02;6.50;;;4.70;;
12840;SDS011;6487;48.626;12.486;2023-12-28T04:22:35;6.40;;;4.70;;
12840;SDS011;6487;48.626;12.486;2023-12-28T04:25:03;6.63;;;4.77;;
12840;SDS011;6487;48.626;12.486;2023-12-28T04:27:32;6.70;;;5.27;;
12840;SDS011;6487;48.626;12.486;2023-12-28T04:30:00;7.13;;;5.77;;
12840;SDS011;6487;48.626;12.486;2023-12-28T04:32:29;7.07;;;5.80;;
12840;SDS011;6487;48.626;12.486;2023-12-28T04:34:58;8.67;;;6.17;;
12840;SDS011;6487;48.626;12.486;2023-12-28T04:37:26;7.17;;;5.60;;
12840;SDS011;6487;48.626;12.486;2023-12-28T04:39:56;4.63;;;3.97;;
12840;SDS011;6487;48.626;12.486;2023-12-28T04:42:25;5.43;;;4.50;;
12840;SDS011;6487;48.626;12.486;2023-12-28T04:44:54;5.30;;;4.73;;
12840;SDS011;6487;48.626;12.486;2023-12-28T04:47:22;5.13;;;4.63;;
12840;SDS011;6487;48.626;12.486;2023-12-28T04:49:51;5.80;;;4.40;;
12840;SDS011;6487;48.626;12.486;2023-12-28T04:52:20;6.07;;;4.43;;
12840;SDS011;6487;48.626;12.486;2023-12-28T04:54:48;4.70;;;4.20;;
12840;SDS011;6487;48.626;12.486;2023-12-28T04:57:19;5.37;;;4.60;;
12840;SDS011;6487;48.626;12.486;2023-12-28T04:59:47;5.50;;;4.70;;
12840;SDS011;6487;48.626;12.486;2023-12-28T05:02:16;8.27;;;4.60;;
12840;SDS011;6487;48.626;12.486;2023-12-28T05:04:44;6.60;;;4.60;;
12840;SDS011;6487;48.626;12.486;2023-12-28T05:07:15;6.07;;;4.60;;
12840;SDS011;6487;48.626;12.486;2023-12-28T05:09:44;6.27;;;5.40;;
12840;SDS011;6487;48.626;12.486;2023-12-28T05:12:12;6.03;;;4.70;;
12840;SDS011;6487;48.626;12.486;2023-12-28T05:14:42;7.20;;;5.50;;
12840;SDS011;6487;48.626;12.486;2023-12-28T05:17:11;6.07;;;4.43;;
12840;SDS011;6487;48.626;12.486;2023-12-28T05:19:39;5.87;;;4.57;;
12840;SDS011;6487;48.626;12.486;2023-12-28T05:22:08;6.90;;;4.70;;
12840;SDS011;6487;48.626;12.486;2023-12-28T05:24:37;5.77;;;4.83;;
12840;SDS011;6487;48.626;12.486;2023-12-28T05:27:06;5.50;;;4.47;;
12840;SDS011;6487;48.626;12.486;2023-12-28T05:29:34;4.97;;;4.27;;
12840;SDS011;6487;48.626;12.486;2023-12-28T05:32:05;6.33;;;4.67;;
12840;SDS011;6487;48.626;12.486;2023-12-28T05:34:34;6.40;;;4.73;;
12840;SDS011;6487;48.626;12.486;2023-12-28T05:37:02;6.57;;;4.80;;
12840;SDS011;6487;48.626;12.486;2023-12-28T05:39:31;6.10;;;4.47;;
12840;SDS011;6487;48.626;12.486;2023-12-28T05:42:00;7.03;;;4.80;;
12840;SDS011;6487;48.626;12.486;2023-12-28T05:44:28;5.90;;;5.00;;
12840;SDS011;6487;48.626;12.486;2023-12-28T05:47:00;6.60;;;4.57;;
12840;SDS011;6487;48.626;12.486;2023-12-28T05:49:31;4.67;;;3.90;;
12840;SDS011;6487;48.626;12.486;2023-12-28T05:52:00;6.00;;;4.37;;
12840;SDS011;6487;48.626;12.486;2023-12-28T05:54:29;9.27;;;4.63;;
12840;SDS011;6487;48.626;12.486;2023-12-28T05:56:57;5.63;;;4.47;;
12840;SDS011;6487;48.626;12.486;2023-12-28T05:59:26;6.67;;;4.17;;
12840;SDS011;6487;48.626;12.486;2023-12-28T06:01:54;6.97;;;4.50;;
12840;SDS011;6487;48.626;12.486;2023-12-28T06:04:23;6.50;;;4.23;;
12840;SDS011;6487;48.626;12.486;2023-12-28T06:06:53;5.07;;;4.37;;
12840;SDS011;6487;48.626;12.486;2023-12-28T06:09:22;5.87;;;4.53;;
12840;SDS011;6487;48.626;12.486;2023-12-28T06:11:50;5.47;;;4.60;;
12840;SDS011;6487;48.626;12.486;2023-12-28T06:14:19;5.90;;;4.47;;
12840;SDS011;6487;48.626;12.486;2023-12-28T06:16:47;6.83;;;4.63;;
12840;SDS011;6487;48.626;12.486;2023-12-28T06:19:16;6.70;;;4.43;;
12840;SDS011;6487;48.626;12.486;2023-12-28T06:21:44;6.50;;;4.30;;
12840;SDS011;6487;48.626;12.486;2023-12-28T06:24:14;4.40;;;4.00;;
12840;SDS011;6487;48.626;12.486;2023-12-28T06:26:44;6.30;;;3.83;;
12840;SDS011;6487;48.626;12.486;2023-12-28T06:29:12;5.47;;;4.57;;
12840;SDS011;6487;48.626;12.486;2023-12-28T06:31:41;5.87;;;4.60;;
12840;SDS011;6487;48.626;12.486;2023-12-28T06:34:10;5.53;;;4.97;;
12840;SDS011;6487;48.626;12.486;2023-12-28T06:36:39;7.10;;;4.47;;
12840;SDS011;6487;48.626;12.486;2023-12-28T06:39:07;6.37;;;4.50;;
12840;SDS011;6487;48.626;12.486;2023-12-28T06:41:37;5.70;;;5.03;;
12840;SDS011;6487;48.626;12.486;2023-12-28T06:44:06;7.67;;;4.63;;
12840;SDS011;6487;48.626;12.486;2023-12-28T06:46:34;5.80;;;4.63;;
12840;SDS011;6487;48.626;12.486;2023-12-28T06:49:03;4.97;;;4.30;;
12840;SDS011;6487;48.626;12.486;2023-12-28T06:51:36;6.53;;;4.57;;
12840;SDS011;6487;48.626;12.486;2023-12-28T06:54:05;6.33;;;4.90;;
12840;SDS011;6487;48.626;12.486;2023-12-28T06:56:34;7.80;;;6.37;;
12840;SDS011;6487;48.626;12.486;2023-12-28T06:59:04;7.50;;;5.80;;
12840;SDS011;6487;48.626;12.486;2023-12-28T07:01:32;5.63;;;5.07;;
12840;SDS011;6487;48.626;12.486;2023-12-28T07:04:01;5.97;;;4.63;;
12840;SDS011;6487;48.626;12.486;2023-12-28T07:06:30;8.60;;;5.20;;
12840;SDS011;6487;48.626;12.486;2023-12-28T07:08:58;7.20;;;5.87;;
12840;SDS011;6487;48.626;12.486;2023-12-28T07:11:27;7.03;;;5.60;;
12840;SDS011;6487;48.626;12.486;2023-12-28T07:13:55;6.33;;;5.60;;
12840;SDS011;6487;48.626;12.486;2023-12-28T07:16:25;5.90;;;5.23;;
12840;SDS011;6487;48.626;12.486;2023-12-28T07:18:54;6.20;;;5.70;;
12840;SDS011;6487;48.626;12.486;2023-12-28T07:21:23;7.87;;;6.73;;
12840;SDS011;6487;48.626;12.486;2023-12-28T07:23:51;6.77;;;6.03;;
12840;SDS011;6487;48.626;12.486;2023-12-28T07:26:20;9.13;;;5.70;;
12840;SDS011;6487;48.626;12.486;2023-12-28T07:28:48;7.43;;;5.77;;
12840;SDS011;6487;48.626;12.486;2023-12-28T07:31:23;7.10;;;6.13;;
12840;SDS011;6487;48.626;12.486;2023-12-28T07:33:54;7.40;;;6.23;;
12840;SDS011;6487;48.626;12.486;2023-12-28T07:36:23;7.20;;;5.93;;
12840;SDS011;6487;48.626;12.486;2023-12-28T07:38:52;7.17;;;5.83;;
12840;SDS011;6487;48.626;12.486;2023-12-28T07:41:20;7.40;;;6.23;;
12840;SDS011;6487;48.626;12.486;2023-12-28T07:43:49;6.53;;;5.83;;
12840;SDS011;6487;48.626;12.486;2023-12-28T07:46:18;7.37;;;5.60;;
12840;SDS011;6487;48.626;12.486;2023-12-28T07:48:48;8.07;;;5.97;;
12840;SDS011;6487;48.626;12.486;2023-12-28T07:51:17;7.40;;;5.67;;
12840;SDS011;6487;48.626;12.486;2023-12-28T07:53:45;10.07;;;6.90;;
12840;SDS011;6487;48.626;12.486;2023-12-28T07:56:14;11.77;;;7.77;;
12840;SDS011;6487;48.626;12.486;2023-12-28T07:58:43;10.20;;;7.10;;
12840;SDS011;6487;48.626;12.486;2023-12-28T08:01:11;8.37;;;7.00;;
12840;SDS011;6487;48.626;12.486;2023-12-28T08:03:40;8.07;;;6.40;;
12840;SDS011;6487;48.626;12.486;2023-12-28T08:06:10;8.33;;;6.10;;
12840;SDS011;6487;48.626;12.486;2023-12-28T08:08:39;6.07;;;5.47;;
12840;SDS011;6487;48.626;12.486;2023-12-28T08:11:07;14.50;;;10.17;;
12840;SDS011;6487;48.626;12.486;2023-12-28T08:13:36;8.57;;;7.67;;
12840;SDS011;6487;48.626;12.486;2023-12-28T08:16:05;12.33;;;8.00;;
12840;SDS011;6487;48.626;12.486;2023-12-28T08:18:34;8.77;;;7.50;;
12840;SDS011;6487;48.626;12.486;2023-12-28T08:21:03;9.43;;;8.30;;
12840;SDS011;6487;48.626;12.486;2023-12-28T08:23:33;9.13;;;8.20;;
12840;SDS011;6487;48.626;12.486;2023-12-28T08:26:02;11.13;;;9.77;;
12840;SDS011;6487;48.626;12.486;2023-12-28T08:28:31;20.43;;;13.77;;
12840;SDS011;6487;48.626;12.486;2023-12-28T08:31:00;25.10;;;16.97;;
12840;SDS011;6487;48.626;12.486;2023-12-28T08:33:28;22.87;;;17.40;;
12840;SDS011;6487;48.626;12.486;2023-12-28T08:35:57;17.33;;;13.40;;
12840;SDS011;6487;48.626;12.486;2023-12-28T08:38:26;25.83;;;15.60;;
12840;SDS011;6487;48.626;12.486;2023-12-28T08:40:56;25.37;;;16.47;;
12840;SDS011;6487;48.626;12.486;2023-12-28T08:43:25;19.83;;;13.57;;
12840;SDS011;6487;48.626;12.486;2023-12-28T08:45:53;23.97;;;14.70;;
12840;SDS011;6487;48.626;12.486;2023-12-28T08:48:22;24.67;;;14.23;;
12840;SDS011;6487;48.626;12.486;2023-12-28T08:50:51;20.40;;;12.93;;
12840;SDS011;6487;48.626;12.486;2023-12-28T08:53:20;16.57;;;13.40;;
12840;SDS011;6487;48.626;12.486;2023-12-28T08:55:48;19.17;;;13.03;;
12840;SDS011;6487;48.626;12.486;2023-12-28T08:58:18;18.10;;;11.57;;
12840;SDS011;6487;48.626;12.486;2023-12-28T09:00:47;13.33;;;9.30;;
12840;SDS011;6487;48.626;12.486;2023-12-28T09:03:16;15.77;;;10.33;;
12840;SDS011;6487;48.626;12.486;2023-12-28T09:05:46;12.87;;;9.10;;
12840;SDS011;6487;48.626;12.486;2023-12-28T09:08:15;13.10;;;9.10;;
12840;SDS011;6487;48.626;12.486;2023-12-28T09:10:43;13.60;;;10.17;;
12840;SDS011;6487;48.626;12.486;2023-12-28T09:13:14;12.97;;;9.43;;
12840;SDS011;6487;48.626;12.486;2023-12-28T09:15:45;14.90;;;11.33;;
12840;SDS011;6487;48.626;12.486;2023-12-28T09:18:14;16.20;;;10.83;;
12840;SDS011;6487;48.626;12.486;2023-12-28T09:20:43;14.90;;;10.63;;
12840;SDS011;6487;48.626;12.486;2023-12-28T09:23:11;15.37;;;11.93;;
12840;SDS011;6487;48.626;12.486;2023-12-28T09:25:40;12.30;;;9.83;;
12840;SDS011;6487;48.626;12.486;2023-12-28T09:28:08;10.43;;;9.17;;
12840;SDS011;6487;48.626;12.486;2023-12-28T09:30:37;13.57;;;9.70;;
12840;SDS011;6487;48.626;12.486;2023-12-28T09:33:07;10.07;;;8.97;;
12840;SDS011;6487;48.626;12.486;2023-12-28T09:35:36;10.87;;;8.27;;
12840;SDS011;6487;48.626;12.486;2023-12-28T09:38:04;12.20;;;7.97;;
12840;SDS011;6487;48.626;12.486;2023-12-28T09:40:33;9.60;;;7.20;;
12840;SDS011;6487;48.626;12.486;2023-12-28T09:43:13;9.73;;;7.27;;
12840;SDS011;6487;48.626;12.486;2023-12-28T09:45:49;9.23;;;7.60;;
12840;SDS011;6487;48.626;12.486;2023-12-28T09:48:21;12.73;;;9.13;;
12840;SDS011;6487;48.626;12.486;2023-12-28T09:50:50;10.43;;;9.10;;
12840;SDS011;6487;48.626;12.486;2023-12-28T09:53:21;10.17;;;7.87;;
12840;SDS011;6487;48.626;12.486;2023-12-28T09:55:51;10.87;;;7.87;;
12840;SDS011;6487;48.626;12.486;2023-12-28T09:58:20;8.17;;;7.37;;
12840;SDS011;6487;48.626;12.486;2023-12-28T10:00:50;10.27;;;8.13;;
12840;SDS011;6487;48.626;12.486;2023-12-28T10:03:19;11.67;;;8.43;;
12840;SDS011;6487;48.626;12.486;2023-12-28T10:05:49;8.53;;;7.57;;
12840;SDS011;6487;48.626;12.486;2023-12-28T10:08:17;11.07;;;8.83;;
12840;SDS011;6487;48.626;12.486;2023-12-28T10:10:46;9.50;;;8.13;;
12840;SDS011;6487;48.626;12.486;2023-12-28T10:13:17;11.53;;;7.07;;
12840;SDS011;6487;48.626;12.486;2023-12-28T10:15:46;7.37;;;6.43;;
12840;SDS011;6487;48.626;12.486;2023-12-28T10:18:17;9.30;;;7.50;;
12840;SDS011;6487;48.626;12.486;2023-12-28T10:20:51;9.63;;;7.80;;
12840;SDS011;6487;48.626;12.486;2023-12-28T10:23:21;13.13;;;8.20;;
12840;SDS011;6487;48.626;12.486;2023-12-28T10:25:50;13.47;;;8.97;;
12840;SDS011;6487;48.626;12.486;2023-12-28T10:28:20;11.13;;;8.27;;
12840;SDS011;6487;48.626;12.486;2023-12-28T10:30:49;8.07;;;6.93;;
12840;SDS011;6487;48.626;12.486;2023-12-28T10:33:23;7.63;;;6.40;;
12840;SDS011;6487;48.626;12.486;2023-12-28T10:35:54;9.33;;;6.87;;
12840;SDS011;6487;48.626;12.486;2023-12-28T10:38:25;7.00;;;6.33;;
12840;SDS011;6487;48.626;12.486;2023-12-28T10:41:02;6.93;;;6.00;;
12840;SDS011;6487;48.626;12.486;2023-12-28T10:43:33;6.80;;;6.10;;
12840;SDS011;6487;48.626;12.486;2023-12-28T10:46:12;7.57;;;6.77;;
12840;SDS011;6487;48.626;12.486;2023-12-28T10:48:51;9.73;;;8.07;;
12840;SDS011;6487;48.626;12.486;2023-12-28T10:51:27;8.83;;;6.87;;
12840;SDS011;6487;48.626;12.486;2023-12-28T10:53:59;9.40;;;7.87;;
12840;SDS011;6487;48.626;12.486;2023-12-28T10:56:41;9.97;;;7.50;;
12840;SDS011;6487;48.626;12.486;2023-12-28T10:59:17;8.10;;;7.27;;
12840;SDS011;6487;48.626;12.486;2023-12-28T11:01:51;14.27;;;12.20;;
12840;SDS011;6487;48.626;12.486;2023-12-28T11:04:27;10.23;;;9.13;;
12840;SDS011;6487;48.626;12.486;2023-12-28T11:07:10;12.40;;;9.53;;
12840;SDS011;6487;48.626;12.486;2023-12-28T11:09:41;12.07;;;10.80;;
12840;SDS011;6487;48.626;12.486;2023-12-28T11:12:10;9.90;;;8.13;;
12840;SDS011;6487;48.626;12.486;2023-12-28T11:14:40;9.20;;;8.30;;
12840;SDS011;6487;48.626;12.486;2023-12-28T11:17:10;9.07;;;8.03;;
12840;SDS011;6487;48.626;12.486;2023-12-28T11:19:40;9.03;;;8.13;;
12840;SDS011;6487;48.626;12.486;2023-12-28T11:22:10;10.20;;;9.20;;
12840;SDS011;6487;48.626;12.486;2023-12-28T11:24:40;10.53;;;8.57;;
12840;SDS011;6487;48.626;12.486;2023-12-28T11:27:10;9.40;;;8.40;;
12840;SDS011;6487;48.626;12.486;2023-12-28T11:29:42;11.20;;;9.93;;
12840;SDS011;6487;48.626;12.486;2023-12-28T11:32:12;9.57;;;8.57;;
12840;SDS011;6487;48.626;12.486;2023-12-28T11:34:42;9.60;;;8.17;;
12840;SDS011;6487;48.626;12.486;2023-12-28T11:37:14;10.30;;;8.73;;
12840;SDS011;6487;48.626;12.486;2023-12-28T11:39:47;8.50;;;7.53;;
12840;SDS011;6487;48.626;12.486;2023-12-28T11:42:19;10.10;;;9.00;;
12840;SDS011;6487;48.626;12.486;2023-12-28T11:44:53;9.40;;;8.40;;
12840;SDS011;6487;48.626;12.486;2023-12-28T11:47:24;11.43;;;8.97;;
12840;SDS011;6487;48.626;12.486;2023-12-28T11:49:54;13.17;;;8.57;;
12840;SDS011;6487;48.626;12.486;2023-12-28T11:52:24;9.60;;;8.70;;
12840;SDS011;6487;48.626;12.486;2023-12-28T11:54:55;9.37;;;8.37;;
12840;SDS011;6487;48.626;12.486;2023-12-28T11:57:23;10.53;;;8.93;;
12840;SDS011;6487;48.626;12.486;2023-12-28T11:59:55;10.90;;;8.43;;
12840;SDS011;6487;48.626;12.486;2023-12-28T12:02:25;12.07;;;9.57;;
12840;SDS011;6487;48.626;12.486;2023-12-28T12:04:54;12.83;;;8.77;;
12840;SDS011;6487;48.626;12.486;2023-12-28T12:07:25;11.83;;;10.30;;
12840;SDS011;6487;48.626;12.486;2023-12-28T12:09:56;15.13;;;9.73;;
12840;SDS011;6487;48.626;12.486;2023-12-28T12:12:26;12.83;;;11.53;;
12840;SDS011;6487;48.626;12.486;2023-12-28T12:14:54;15.30;;;13.70;;
12840;SDS011;6487;48.626;12.486;2023-12-28T12:17:23;14.50;;;12.13;;
12840;SDS011;6487;48.626;12.486;2023-12-28T12:19:52;14.93;;;11.93;;
12840;SDS011;6487;48.626;12.486;2023-12-28T12:22:26;16.03;;;11.50;;
12840;SDS011;6487;48.626;12.486;2023-12-28T12:24:55;12.53;;;11.27;;
12840;SDS011;6487;48.626;12.486;2023-12-28T12:27:27;12.43;;;10.90;;
12840;SDS011;6487;48.626;12.486;2023-12-28T12:29:56;10.70;;;9.57;;
12840;SDS011;6487;48.626;12.486;2023-12-28T12:32:24;11.20;;;9.97;;
12840;SDS011;6487;48.626;12.486;2023-12-28T12:34:53;16.30;;;12.40;;
12840;SDS011;6487;48.626;12.486;2023-12-28T12:37:22;12.27;;;11.00;;
12840;SDS011;6487;48.626;12.486;2023-12-28T12:39:52;11.30;;;10.10;;
12840;SDS011;6487;48.626;12.486;2023-12-28T12:42:21;10.27;;;9.27;;
12840;SDS011;6487;48.626;12.486;2023-12-28T12:44:50;9.83;;;8.70;;
12840;SDS011;6487;48.626;12.486;2023-12-28T12:47:19;10.83;;;9.73;;
12840;SDS011;6487;48.626;12.486;2023-12-28T12:49:47;10.13;;;8.93;;
12840;SDS011;6487;48.626;12.486;2023-12-28T12:52:19;12.33;;;10.07;;
12840;SDS011;6487;48.626;12.486;2023-12-28T12:54:54;17.40;;;15.60;;
12840;SDS011;6487;48.626;12.486;2023-12-28T12:57:24;12.90;;;11.37;;
12840;SDS011;6487;48.626;12.486;2023-12-28T12:59:53;12.87;;;10.63;;
12840;SDS011;6487;48.626;12.486;2023-12-28T13:02:23;13.47;;;12.07;;
12840;SDS011;6487;48.626;12.486;2023-12-28T13:04:54;12.73;;;11.43;;
12840;SDS011;6487;48.626;12.486;2023-12-28T13:07:23;12.73;;;10.77;;
12840;SDS011;6487;48.626;12.486;2023-12-28T13:09:53;13.40;;;11.87;;
12840;SDS011;6487;48.626;12.486;2023-12-28T13:12:22;14.63;;;12.10;;
12840;SDS011;6487;48.626;12.486;2023-12-28T13:14:51;15.87;;;12.43;;
12840;SDS011;6487;48.626;12.486;2023-12-28T13:17:20;12.37;;;10.80;;
12840;SDS011;6487;48.626;12.486;2023-12-28T13:19:48;14.57;;;12.80;;
12840;SDS011;6487;48.626;12.486;2023-12-28T13:22:17;16.07;;;12.07;;
12840;SDS011;6487;48.626;12.486;2023-12-28T13:24:45;13.17;;;11.37;;
12840;SDS011;6487;48.626;12.486;2023-12-28T13:27:15;11.33;;;10.23;;
12840;SDS011;6487;48.626;12.486;2023-12-28T13:29:43;13.77;;;11.30;;
12840;SDS011;6487;48.626;12.486;2023-12-28T13:32:12;12.13;;;10.93;;
12840;SDS011;6487;48.626;12.486;2023-12-28T13:34:41;13.70;;;12.23;;
12840;SDS011;6487;48.626;12.486;2023-12-28T13:37:13;21.23;;;18.03;;
12840;SDS011;6487;48.626;12.486;2023-12-28T13:39:41;45.80;;;34.47;;
12840;SDS011;6487;48.626;12.486;2023-12-28T13:42:10;34.43;;;26.60;;
12840;SDS011;6487;48.626;12.486;2023-12-28T13:44:43;25.67;;;22.87;;
12840;SDS011;6487;48.626;12.486;2023-12-28T13:47:11;20.33;;;18.13;;
12840;SDS011;6487;48.626;12.486;2023-12-28T13:49:40;17.47;;;15.60;;
12840;SDS011;6487;48.626;12.486;2023-12-28T13:52:09;17.63;;;14.73;;
12840;SDS011;6487;48.626;12.486;2023-12-28T13:54:38;16.67;;;13.47;;
12840;SDS011;6487;48.626;12.486;2023-12-28T13:57:07;18.43;;;14.93;;
12840;SDS011;6487;48.626;12.486;2023-12-28T13:59:35;22.00;;;17.90;;
12840;SDS011;6487;48.626;12.486;2023-12-28T14:02:05;21.17;;;18.20;;
12840;SDS011;6487;48.626;12.486;2023-12-28T14:04:34;19.30;;;17.17;;
12840;SDS011;6487;48.626;12.486;2023-12-28T14:07:05;18.77;;;15.53;;
12840;SDS011;6487;48.626;12.486;2023-12-28T14:09:34;13.00;;;11.63;;
12840;SDS011;6487;48.626;12.486;2023-12-28T14:12:03;16.47;;;14.57;;
12840;SDS011;6487;48.626;12.486;2023-12-28T14:14:32;14.27;;;12.83;;
12840;SDS011;6487;48.626;12.486;2023-12-28T14:17:00;14.50;;;12.73;;
12840;SDS011;6487;48.626;12.486;2023-12-28T14:19:32;15.37;;;13.17;;
12840;SDS011;6487;48.626;12.486;2023-12-28T14:22:01;13.57;;;12.03;;
12840;SDS011;6487;48.626;12.486;2023-12-28T14:24:29;13.50;;;11.77;;
12840;SDS011;6487;48.626;12.486;2023-12-28T14:27:04;13.30;;;11.90;;
12840;SDS011;6487;48.626;12.486;2023-12-28T14:29:33;13.43;;;11.50;;
12840;SDS011;6487;48.626;12.486;2023-12-28T14:32:03;12.43;;;11.13;;
12840;SDS011;6487;48.626;12.486;2023-12-28T14:34:34;13.33;;;11.40;;
12840;SDS011;6487;48.626;12.486;2023-12-28T14:37:03;14.50;;;11.63;;
12840;SDS011;6487;48.626;12.486;2023-12-28T14:39:33;12.00;;;10.90;;
12840;SDS011;6487;48.626;12.486;2023-12-28T14:42:02;14.50;;;10.83;;
12840;SDS011;6487;48.626;12.486;2023-12-28T14:44:31;11.90;;;10.50;;
12840;SDS011;6487;48.626;12.486;2023-12-28T14:47:01;11.93;;;10.53;;
12840;SDS011;6487;48.626;12.486;2023-12-28T14:49:30;11.57;;;10.30;;
12840;SDS011;6487;48.626;12.486;2023-12-28T14:52:00;12.50;;;11.20;;
12840;SDS011;6487;48.626;12.486;2023-12-28T14:54:29;11.30;;;10.10;;
12840;SDS011;6487;48.626;12.486;2023-12-28T14:56:57;12.20;;;10.97;;